createdAt,value
2019-01-20T00:00:25.276Z,73.18
2019-01-20T00:02:51.470Z,72.50
2019-01-20T00:05:17.919Z,72.06
2019-01-20T00:07:44.079Z,71.74
2019-01-20T00:10:11.861Z,71.38
2019-01-20T00:12:38.007Z,71.50
2019-01-20T00:15:07.770Z,72.33
2019-01-20T00:17:34.056Z,72.36
2019-01-20T00:20:00.250Z,72.60
2019-01-20T00:22:26.372Z,72.20
2019-01-20T00:24:52.669Z,72.11
2019-01-20T00:27:18.821Z,72.56
2019-01-20T00:29:44.981Z,74.40
2019-01-20T00:32:11.263Z,73.64
2019-01-20T00:34:37.424Z,73.59
2019-01-20T00:37:03.576Z,72.82
2019-01-20T00:39:29.752Z,73.17
2019-01-20T00:41:55.908Z,73.05
2019-01-20T00:44:22.081Z,72.79
2019-01-20T00:46:48.450Z,72.74
2019-01-20T00:49:14.708Z,72.57
2019-01-20T00:51:40.981Z,73.65
2019-01-20T00:54:07.479Z,72.96
2019-01-20T00:56:33.638Z,72.77
2019-01-20T00:58:59.788Z,72.77
2019-01-20T01:01:25.974Z,72.81
2019-01-20T01:03:52.130Z,72.48
2019-01-20T01:06:19.993Z,72.31
2019-01-20T01:08:46.185Z,71.91
2019-01-20T01:11:12.341Z,72.11
2019-01-20T01:13:38.609Z,72.17
2019-01-20T01:16:04.802Z,72.01
2019-01-20T01:18:31.047Z,71.72
2019-01-20T01:20:57.205Z,71.38
2019-01-20T01:23:23.503Z,70.76
2019-01-20T01:25:49.710Z,71.33
2019-01-20T01:28:15.864Z,70.68
2019-01-20T01:30:42.148Z,70.27
2019-01-20T01:33:08.420Z,69.97
2019-01-20T01:35:34.677Z,69.10
2019-01-20T01:38:00.863Z,68.43
2019-01-20T01:40:27.021Z,68.52
2019-01-20T01:42:53.178Z,69.22
2019-01-20T01:45:19.667Z,69.68
2019-01-20T01:47:45.936Z,70.27
2019-01-20T01:50:13.690Z,70.93
2019-01-20T01:52:39.893Z,70.65
2019-01-20T01:55:07.954Z,70.08
2019-01-20T01:57:34.100Z,69.51
2019-01-20T02:00:00.390Z,69.45
2019-01-20T02:02:26.665Z,68.58
2019-01-20T02:04:52.923Z,69.13
2019-01-20T02:07:19.111Z,69.10
2019-01-20T02:09:45.367Z,70.26
2019-01-20T02:12:11.521Z,70.71
2019-01-20T02:14:37.700Z,70.13
2019-01-20T02:17:03.954Z,69.93
2019-01-20T02:19:30.111Z,70.13
2019-01-20T02:21:56.307Z,70.40
2019-01-20T02:24:22.488Z,70.15
2019-01-20T02:26:48.742Z,70.40
2019-01-20T02:29:14.927Z,69.91
2019-01-20T02:31:41.185Z,68.77
2019-01-20T02:34:07.352Z,67.83
2019-01-20T02:36:33.539Z,67.94
2019-01-20T02:38:59.692Z,67.60
2019-01-20T02:41:25.860Z,67.27
2019-01-20T02:43:52.050Z,67.54
2019-01-20T02:46:18.211Z,67.60
2019-01-20T02:48:44.430Z,67.41
2019-01-20T02:51:10.596Z,67.73
2019-01-20T02:53:36.755Z,67.16
2019-01-20T02:56:03.499Z,66.49
2019-01-20T02:58:29.682Z,65.43
2019-01-20T03:00:55.843Z,65.31
2019-01-20T03:03:22.004Z,65.12
2019-01-20T03:05:48.188Z,65.06
2019-01-20T03:08:14.352Z,65.00
2019-01-20T03:10:40.503Z,64.58
2019-01-20T03:13:06.688Z,64.26
2019-01-20T03:15:32.847Z,64.82
2019-01-20T03:17:59.009Z,64.71
2019-01-20T03:20:25.199Z,64.71
2019-01-20T03:22:51.563Z,64.97
2019-01-20T03:25:18.426Z,65.33
2019-01-20T03:27:44.601Z,65.74
2019-01-20T03:30:16.646Z,66.75
2019-01-20T03:32:42.787Z,67.19
2019-01-20T03:35:10.380Z,67.79
2019-01-20T03:37:36.529Z,68.13
2019-01-20T03:40:06.187Z,68.33
2019-01-20T03:42:32.373Z,67.70
2019-01-20T03:44:58.527Z,67.30
2019-01-20T03:47:24.683Z,66.85
2019-01-20T03:49:51.065Z,67.11
2019-01-20T03:52:17.219Z,67.33
2019-01-20T03:54:43.367Z,67.69
2019-01-20T03:57:09.661Z,67.30
2019-01-20T03:59:35.821Z,67.22
2019-01-20T04:02:01.971Z,67.09
2019-01-20T04:04:28.153Z,66.95
2019-01-20T04:06:54.308Z,67.56
2019-01-20T04:09:20.463Z,67.05
2019-01-20T04:11:46.648Z,67.52
2019-01-20T04:14:12.798Z,66.60
2019-01-20T04:16:38.949Z,66.06
2019-01-20T04:19:05.127Z,65.53
2019-01-20T04:21:31.291Z,65.74
2019-01-20T04:23:57.444Z,65.77
2019-01-20T04:26:23.624Z,65.52
2019-01-20T04:28:49.781Z,65.85
2019-01-20T04:31:15.943Z,65.95
2019-01-20T04:33:42.118Z,66.08
2019-01-20T04:36:08.281Z,66.52
2019-01-20T04:38:34.538Z,66.56
2019-01-20T04:41:00.734Z,66.53
2019-01-20T04:43:26.896Z,66.01
2019-01-20T04:45:53.041Z,65.70
2019-01-20T04:48:19.225Z,66.13
2019-01-20T04:50:45.486Z,66.39
2019-01-20T04:53:11.645Z,65.37
2019-01-20T04:55:37.944Z,64.96
2019-01-20T04:58:04.601Z,65.08
2019-01-20T05:00:30.758Z,66.10
2019-01-20T05:02:56.946Z,66.44
2019-01-20T05:05:23.100Z,66.53
2019-01-20T05:07:49.248Z,67.21
2019-01-20T05:10:17.240Z,66.75
2019-01-20T05:12:43.502Z,66.87
2019-01-20T05:15:15.286Z,66.86
2019-01-20T05:17:41.467Z,66.54
2019-01-20T05:20:08.726Z,66.10
2019-01-20T05:22:34.891Z,65.70
2019-01-20T05:25:01.081Z,65.37
2019-01-20T05:27:27.339Z,65.36
2019-01-20T05:29:53.494Z,66.17
2019-01-20T05:32:19.684Z,66.10
2019-01-20T05:34:47.387Z,66.66
2019-01-20T05:37:13.541Z,66.84
2019-01-20T05:39:39.736Z,66.64
2019-01-20T05:42:05.899Z,67.12
2019-01-20T05:44:32.055Z,67.89
2019-01-20T05:46:58.341Z,67.99
2019-01-20T05:49:24.498Z,68.35
2019-01-20T05:51:50.801Z,68.49
2019-01-20T05:54:16.993Z,69.24
2019-01-20T05:56:43.160Z,69.75
2019-01-20T05:59:09.323Z,70.26
2019-01-20T06:01:35.538Z,69.94
2019-01-20T06:04:01.730Z,68.95
2019-01-20T06:06:27.971Z,68.43
2019-01-20T06:08:54.167Z,68.10
2019-01-20T06:11:20.324Z,67.95
2019-01-20T06:13:46.485Z,67.95
2019-01-20T06:16:12.671Z,67.72
2019-01-20T06:18:38.919Z,68.32
2019-01-20T06:21:05.065Z,68.22
2019-01-20T06:23:31.254Z,68.42
2019-01-20T06:25:57.409Z,68.40
2019-01-20T06:28:23.573Z,67.93
2019-01-20T06:30:49.767Z,67.67
2019-01-20T06:33:16.037Z,67.42
2019-01-20T06:35:42.291Z,67.44
2019-01-20T06:38:08.486Z,68.08
2019-01-20T06:40:34.647Z,69.75
2019-01-20T06:43:02.317Z,69.16
2019-01-20T06:45:28.704Z,69.23
2019-01-20T06:47:54.853Z,69.52
2019-01-20T06:50:21.210Z,69.16
2019-01-20T06:52:47.410Z,68.85
2019-01-20T06:55:13.563Z,68.89
2019-01-20T06:57:39.919Z,68.74
2019-01-20T07:00:18.035Z,68.19
2019-01-20T07:02:44.185Z,67.81
2019-01-20T07:05:10.557Z,67.52
2019-01-20T07:07:36.762Z,67.89
2019-01-20T07:10:05.821Z,69.47
2019-01-20T07:12:31.982Z,70.30
2019-01-20T07:14:58.174Z,70.29
2019-01-20T07:17:24.334Z,69.43
2019-01-20T07:19:50.496Z,70.32
2019-01-20T07:22:16.789Z,69.45
2019-01-20T07:24:43.036Z,69.40
2019-01-20T07:27:09.188Z,69.53
2019-01-20T07:29:35.433Z,69.46
2019-01-20T07:32:01.685Z,69.18
2019-01-20T07:34:27.848Z,70.18
2019-01-20T07:36:54.025Z,71.33
2019-01-20T07:39:20.180Z,71.23
2019-01-20T07:41:46.331Z,71.31
2019-01-20T07:44:12.514Z,70.96
2019-01-20T07:46:38.667Z,70.88
2019-01-20T07:49:04.818Z,70.71
2019-01-20T07:51:31.109Z,70.70
2019-01-20T07:53:57.500Z,70.91
2019-01-20T07:56:23.654Z,70.31
2019-01-20T07:58:49.953Z,70.98
2019-01-20T08:01:16.207Z,70.98
2019-01-20T08:03:42.366Z,70.87
2019-01-20T08:06:08.554Z,70.43
2019-01-20T08:08:34.705Z,69.59
2019-01-20T08:11:00.860Z,68.88
2019-01-20T08:13:27.056Z,68.13
2019-01-20T08:15:53.213Z,67.10
2019-01-20T08:18:19.479Z,67.77
2019-01-20T08:20:45.664Z,67.42
2019-01-20T08:23:11.816Z,67.62
2019-01-20T08:25:37.996Z,67.35
2019-01-20T08:28:04.177Z,66.78
2019-01-20T08:30:30.332Z,66.47
2019-01-20T08:32:56.484Z,67.82
2019-01-20T08:35:23.292Z,67.14
2019-01-20T08:37:49.440Z,66.39
2019-01-20T08:40:23.943Z,66.32
2019-01-20T08:42:50.143Z,65.80
2019-01-20T08:45:31.998Z,64.96
2019-01-20T08:48:04.514Z,64.09
2019-01-20T08:50:30.784Z,64.30
2019-01-20T08:52:56.960Z,64.41
2019-01-20T08:55:23.462Z,64.82
2019-01-20T08:57:49.614Z,66.16
2019-01-20T09:00:15.877Z,66.01
2019-01-20T09:02:42.156Z,65.09
2019-01-20T09:05:08.837Z,65.01
2019-01-20T09:07:34.987Z,66.37
2019-01-20T09:10:01.175Z,65.55
2019-01-20T09:12:27.740Z,65.00
2019-01-20T09:14:54.005Z,63.64
2019-01-20T09:17:20.296Z,64.72
2019-01-20T09:19:46.459Z,63.54
2019-01-20T09:22:12.609Z,65.38
2019-01-20T09:24:38.798Z,66.49
2019-01-20T09:27:04.958Z,64.91
2019-01-20T09:29:31.221Z,63.48
2019-01-20T09:31:57.424Z,62.65
2019-01-20T09:34:23.582Z,60.99
2019-01-20T09:36:49.736Z,60.66
2019-01-20T09:39:15.924Z,60.32
2019-01-20T09:41:42.081Z,59.10
2019-01-20T09:44:08.240Z,58.65
2019-01-20T09:46:34.542Z,57.98
2019-01-20T09:49:00.754Z,57.95
2019-01-20T09:51:26.963Z,58.57
2019-01-20T09:53:53.261Z,58.23
2019-01-20T09:56:19.526Z,59.42
2019-01-20T09:58:45.675Z,60.21
2019-01-20T10:01:12.036Z,59.71
2019-01-20T10:03:38.201Z,59.79
2019-01-20T10:06:04.560Z,60.00
2019-01-20T10:08:30.742Z,60.38
2019-01-20T10:10:56.899Z,61.34
2019-01-20T10:13:23.047Z,62.47
2019-01-20T10:15:52.159Z,62.30
2019-01-20T10:18:17.303Z,61.23
2019-01-20T10:20:43.473Z,60.44
2019-01-20T10:23:09.769Z,60.64
2019-01-20T10:25:36.030Z,60.30
2019-01-20T10:28:02.376Z,60.32
2019-01-20T10:30:33.536Z,60.95
2019-01-20T10:32:59.991Z,62.29
2019-01-20T10:35:28.048Z,61.83
2019-01-20T10:37:55.938Z,63.15
2019-01-20T10:40:22.086Z,66.65
2019-01-20T10:42:48.363Z,68.14
2019-01-20T10:45:14.608Z,67.75
2019-01-20T10:47:40.889Z,68.61
2019-01-20T10:50:10.130Z,70.26
2019-01-20T10:52:36.435Z,69.58
2019-01-20T10:55:03.601Z,69.15
2019-01-20T10:57:29.803Z,67.82
2019-01-20T10:59:56.097Z,66.97
2019-01-20T11:02:22.258Z,67.17
2019-01-20T11:04:48.415Z,66.08
2019-01-20T11:07:14.618Z,67.32
2019-01-20T11:09:40.780Z,69.10
2019-01-20T11:12:06.927Z,69.38
2019-01-20T11:14:33.229Z,68.71
2019-01-20T11:16:59.382Z,69.55
2019-01-20T11:19:25.556Z,70.95
2019-01-20T11:21:51.723Z,71.83
2019-01-20T11:24:17.880Z,71.72
2019-01-20T11:26:44.135Z,71.57
2019-01-20T11:29:10.321Z,70.97
2019-01-20T11:31:36.590Z,71.80
2019-01-20T11:34:02.747Z,73.52
2019-01-20T11:36:28.984Z,73.82
2019-01-20T11:38:55.140Z,74.36
2019-01-20T11:41:21.297Z,72.41
2019-01-20T11:43:47.501Z,71.91
2019-01-20T11:46:13.662Z,73.14
2019-01-20T11:48:39.827Z,72.84
2019-01-20T11:51:06.125Z,71.87
2019-01-20T11:53:32.382Z,69.91
2019-01-20T11:55:58.535Z,71.68
2019-01-20T11:58:24.881Z,72.71
2019-01-20T12:00:51.036Z,74.13
2019-01-20T12:03:17.224Z,74.84
2019-01-20T12:05:43.413Z,74.00
2019-01-20T12:08:09.577Z,72.26
2019-01-20T12:10:35.827Z,71.94
2019-01-20T12:13:10.138Z,72.08
2019-01-20T12:15:36.295Z,70.52
2019-01-20T12:18:03.057Z,69.00
2019-01-20T12:20:29.248Z,69.57
2019-01-20T12:22:55.567Z,70.32
2019-01-20T12:25:21.725Z,70.31
2019-01-20T12:27:47.919Z,69.26
2019-01-20T12:30:17.276Z,68.16
2019-01-20T12:32:43.637Z,69.11
2019-01-20T12:35:10.034Z,70.99
2019-01-20T12:37:36.186Z,69.17
2019-01-20T12:40:08.522Z,67.13
2019-01-20T12:42:34.814Z,66.39
2019-01-20T12:45:00.969Z,68.54
2019-01-20T12:47:27.118Z,69.10
2019-01-20T12:49:53.414Z,68.07
2019-01-20T12:52:19.597Z,69.61
2019-01-20T12:54:45.766Z,69.19
2019-01-20T12:57:11.961Z,67.75
2019-01-20T12:59:38.155Z,68.71
2019-01-20T13:02:04.312Z,68.37
2019-01-20T13:04:30.608Z,70.12
2019-01-20T13:06:56.772Z,71.80
2019-01-20T13:09:22.923Z,69.98
2019-01-20T13:11:49.115Z,69.85
2019-01-20T13:14:15.277Z,71.53
2019-01-20T13:16:41.457Z,72.07
2019-01-20T13:19:07.625Z,71.92
2019-01-20T13:21:33.781Z,72.13
2019-01-20T13:24:00.034Z,71.40
2019-01-20T13:26:26.326Z,69.57
2019-01-20T13:28:52.516Z,68.40
2019-01-20T13:31:18.657Z,71.21
2019-01-20T13:33:44.942Z,71.01
2019-01-20T13:36:11.212Z,73.12
2019-01-20T13:38:37.365Z,73.61
2019-01-20T13:41:03.750Z,72.64
2019-01-20T13:43:29.905Z,71.91
2019-01-20T13:45:56.054Z,72.90
2019-01-20T13:48:22.339Z,72.91
2019-01-20T13:50:48.515Z,72.74
2019-01-20T13:53:14.666Z,72.29
2019-01-20T13:55:40.854Z,71.65
2019-01-20T13:58:07.007Z,71.28
2019-01-20T14:00:33.311Z,72.00
2019-01-20T14:02:59.594Z,72.00
2019-01-20T14:05:25.755Z,72.01
2019-01-20T14:07:51.916Z,70.68
2019-01-20T14:10:20.114Z,70.41
2019-01-20T14:12:46.266Z,70.21
2019-01-20T14:15:14.126Z,70.38
2019-01-20T14:17:40.307Z,70.03
2019-01-20T14:20:10.073Z,70.37
2019-01-20T14:22:36.231Z,69.74
2019-01-20T14:25:04.624Z,69.86
2019-01-20T14:27:30.776Z,70.13
2019-01-20T14:29:56.930Z,70.94
2019-01-20T14:32:23.118Z,70.35
2019-01-20T14:34:49.268Z,70.13
2019-01-20T14:37:15.433Z,73.01
2019-01-20T14:39:41.723Z,72.56
2019-01-20T14:42:07.883Z,71.63
2019-01-20T14:44:34.153Z,72.34
2019-01-20T14:47:00.341Z,72.41
2019-01-20T14:49:26.511Z,73.08
2019-01-20T14:51:52.651Z,72.97
2019-01-20T14:54:18.843Z,72.07
2019-01-20T14:56:44.994Z,71.36
2019-01-20T14:59:11.160Z,73.52
2019-01-20T15:01:37.412Z,73.34
2019-01-20T15:04:03.573Z,72.54
2019-01-20T15:06:29.726Z,72.63
2019-01-20T15:08:55.902Z,73.39
2019-01-20T15:11:22.073Z,73.06
2019-01-20T15:13:48.228Z,73.86
2019-01-20T15:16:14.430Z,73.74
2019-01-20T15:18:40.683Z,73.13
2019-01-20T15:21:06.852Z,72.66
2019-01-20T15:23:33.150Z,72.56
2019-01-20T15:25:59.406Z,72.66
2019-01-20T15:28:25.589Z,73.24
2019-01-20T15:30:51.777Z,73.68
2019-01-20T15:33:17.925Z,73.39
2019-01-20T15:35:44.084Z,75.03
2019-01-20T15:38:10.287Z,75.48
2019-01-20T15:40:36.535Z,74.91
2019-01-20T15:43:02.996Z,74.03
2019-01-20T15:45:29.186Z,74.61
2019-01-20T15:47:55.364Z,75.37
2019-01-20T15:50:26.707Z,75.05
2019-01-20T15:52:52.917Z,74.17
2019-01-20T15:55:20.421Z,74.86
2019-01-20T15:57:46.680Z,75.88
2019-01-20T16:00:25.658Z,75.20
2019-01-20T16:02:51.973Z,75.72
2019-01-20T16:05:18.231Z,75.62
2019-01-20T16:07:44.452Z,75.10
2019-01-20T16:10:13.129Z,75.29
2019-01-20T16:12:39.290Z,74.27
2019-01-20T16:15:09.086Z,74.76
2019-01-20T16:17:35.249Z,74.77
2019-01-20T16:20:01.522Z,74.74
2019-01-20T16:22:27.711Z,74.12
2019-01-20T16:24:53.864Z,74.05
2019-01-20T16:27:20.135Z,74.02
2019-01-20T16:29:46.428Z,73.31
2019-01-20T16:32:12.690Z,73.36
2019-01-20T16:34:38.836Z,73.47
2019-01-20T16:37:06.234Z,73.54
2019-01-20T16:39:32.655Z,73.32
2019-01-20T16:41:59.298Z,72.64
2019-01-20T16:44:26.569Z,72.01
2019-01-20T16:46:52.744Z,71.80
2019-01-20T16:49:20.412Z,72.27
2019-01-20T16:51:46.586Z,72.38
2019-01-20T16:54:12.749Z,72.14
2019-01-20T16:56:39.012Z,71.94
2019-01-20T16:59:05.224Z,71.48
2019-01-20T17:01:31.506Z,71.41
2019-01-20T17:03:57.838Z,71.77
2019-01-20T17:06:24.354Z,72.86
2019-01-20T17:08:50.507Z,72.95
2019-01-20T17:11:16.670Z,72.78
2019-01-20T17:13:42.860Z,72.66
2019-01-20T17:16:09.023Z,72.64
2019-01-20T17:18:35.204Z,72.11
2019-01-20T17:21:01.766Z,72.38
2019-01-20T17:23:27.916Z,71.53
2019-01-20T17:25:54.417Z,70.73
2019-01-20T17:28:20.733Z,71.49
2019-01-20T17:30:46.886Z,71.19
2019-01-20T17:33:13.079Z,71.12
2019-01-20T17:35:39.753Z,71.45
2019-01-20T17:38:05.903Z,71.32
2019-01-20T17:40:32.180Z,70.98
2019-01-20T17:42:58.493Z,70.77
2019-01-20T17:45:33.610Z,71.27
2019-01-20T17:48:01.033Z,71.79
2019-01-20T17:50:32.759Z,72.32
2019-01-20T17:52:59.412Z,71.75
2019-01-20T17:55:25.703Z,71.02
2019-01-20T17:57:51.957Z,71.55
2019-01-20T18:00:21.632Z,71.01
2019-01-20T18:02:47.916Z,70.97
2019-01-20T18:05:17.123Z,71.29
2019-01-20T18:07:43.596Z,71.41
2019-01-20T18:10:11.585Z,71.46
2019-01-20T18:12:37.748Z,71.13
2019-01-20T18:15:07.654Z,70.92
2019-01-20T18:17:33.975Z,71.35
2019-01-20T18:20:00.213Z,72.43
2019-01-20T18:22:26.551Z,72.17
2019-01-20T18:24:52.847Z,72.09
2019-01-20T18:27:19.122Z,73.00
2019-01-20T18:29:45.492Z,72.85
2019-01-20T18:32:11.689Z,73.36
2019-01-20T18:34:37.954Z,72.80
2019-01-20T18:37:04.232Z,72.21
2019-01-20T18:39:30.424Z,72.43
2019-01-20T18:41:56.737Z,72.91
2019-01-20T18:44:23.004Z,73.12
2019-01-20T18:46:49.203Z,72.93
2019-01-20T18:49:15.365Z,72.89
2019-01-20T18:51:41.545Z,72.44
2019-01-20T18:54:07.761Z,71.95
2019-01-20T18:56:33.945Z,71.37
2019-01-20T18:59:00.109Z,71.00
2019-01-20T19:01:26.319Z,70.73
2019-01-20T19:03:52.987Z,70.34
2019-01-20T19:06:19.162Z,70.19
2019-01-20T19:08:45.351Z,70.23
2019-01-20T19:11:11.527Z,71.19
2019-01-20T19:13:37.789Z,71.72
2019-01-20T19:16:08.866Z,71.42
2019-01-20T19:18:32.150Z,71.89
2019-01-20T19:20:58.290Z,71.69
2019-01-20T19:23:24.897Z,72.57
2019-01-20T19:25:51.048Z,72.80
2019-01-20T19:28:17.226Z,73.67
2019-01-20T19:30:43.518Z,73.70
2019-01-20T19:33:09.667Z,74.00
2019-01-20T19:35:35.821Z,74.74
2019-01-20T19:38:02.005Z,74.73
2019-01-20T19:40:28.160Z,75.17
2019-01-20T19:42:54.314Z,77.05
2019-01-20T19:45:20.947Z,76.95
2019-01-20T19:47:47.481Z,76.02
2019-01-20T19:50:15.343Z,75.20
2019-01-20T19:52:41.637Z,75.29
2019-01-20T19:55:11.113Z,74.37
2019-01-20T19:57:37.435Z,73.35
2019-01-20T20:00:07.015Z,72.89
2019-01-20T20:02:33.187Z,73.44
2019-01-20T20:04:59.349Z,73.37
2019-01-20T20:07:25.939Z,74.21
2019-01-20T20:09:52.207Z,73.91
2019-01-20T20:12:18.359Z,73.94
2019-01-20T20:14:44.575Z,74.44
2019-01-20T20:17:10.735Z,74.16
2019-01-20T20:19:36.890Z,73.79
2019-01-20T20:22:03.076Z,73.36
2019-01-20T20:24:29.230Z,73.28
2019-01-20T20:26:55.405Z,72.86
2019-01-20T20:29:21.570Z,71.81
2019-01-20T20:31:47.719Z,72.99
2019-01-20T20:34:13.881Z,72.72
2019-01-20T20:36:40.079Z,72.01
2019-01-20T20:39:07.243Z,72.56
2019-01-20T20:41:33.388Z,72.01
2019-01-20T20:43:59.728Z,72.18
2019-01-20T20:46:30.521Z,72.17
2019-01-20T20:48:54.361Z,73.62
2019-01-20T20:51:20.544Z,72.77
2019-01-20T20:53:46.701Z,72.64
2019-01-20T20:56:12.854Z,72.98
2019-01-20T20:58:39.048Z,72.84
2019-01-20T21:01:05.208Z,72.68
2019-01-20T21:03:31.365Z,72.43
2019-01-20T21:05:57.555Z,71.95
2019-01-20T21:08:23.766Z,71.72
2019-01-20T21:10:49.929Z,71.41
2019-01-20T21:13:16.113Z,71.99
2019-01-20T21:15:42.264Z,71.89
2019-01-20T21:18:08.532Z,71.65
2019-01-20T21:20:34.837Z,72.74
2019-01-20T21:23:00.999Z,73.47
2019-01-20T21:25:28.120Z,74.12
2019-01-20T21:27:54.310Z,73.14
2019-01-20T21:30:25.946Z,72.74
2019-01-20T21:32:52.214Z,71.99
2019-01-20T21:35:18.607Z,72.34
2019-01-20T21:37:44.764Z,72.71
2019-01-20T21:40:13.439Z,71.98
2019-01-20T21:42:39.624Z,71.99
2019-01-20T21:45:08.490Z,71.51
2019-01-20T21:47:34.642Z,72.40
2019-01-20T21:50:00.847Z,73.55
2019-01-20T21:52:27.009Z,72.84
2019-01-20T21:54:53.173Z,73.12
2019-01-20T21:57:19.360Z,73.53
2019-01-20T21:59:45.620Z,73.88
2019-01-20T22:02:11.784Z,73.82
2019-01-20T22:04:38.063Z,73.37
2019-01-20T22:07:04.216Z,73.16
2019-01-20T22:09:30.480Z,73.53
2019-01-20T22:11:56.680Z,73.51
2019-01-20T22:14:23.170Z,73.24
2019-01-20T22:16:52.820Z,72.44
2019-01-20T22:19:17.482Z,72.40
2019-01-20T22:21:43.792Z,72.80
2019-01-20T22:24:09.950Z,72.41
2019-01-20T22:26:36.147Z,72.95
2019-01-20T22:29:02.405Z,72.56
2019-01-20T22:31:28.663Z,72.49
2019-01-20T22:33:54.972Z,71.94
2019-01-20T22:36:21.126Z,72.04
2019-01-20T22:38:47.290Z,72.05
2019-01-20T22:41:13.488Z,72.79
2019-01-20T22:43:39.776Z,73.48
2019-01-20T22:46:06.012Z,73.18
2019-01-20T22:48:32.310Z,73.18
2019-01-20T22:50:58.470Z,72.72
2019-01-20T22:53:24.729Z,72.22
2019-01-20T22:55:50.917Z,72.76
2019-01-20T22:58:17.172Z,72.17
2019-01-20T23:00:48.433Z,71.98
2019-01-20T23:03:14.863Z,71.70
2019-01-20T23:05:41.023Z,72.51
2019-01-20T23:08:07.188Z,72.59
2019-01-20T23:10:34.459Z,72.44
2019-01-20T23:13:00.652Z,72.68
2019-01-20T23:15:26.778Z,72.21
2019-01-20T23:17:53.050Z,71.88
2019-01-20T23:20:19.237Z,71.96
2019-01-20T23:22:45.427Z,72.21
2019-01-20T23:25:11.617Z,71.49
2019-01-20T23:27:37.802Z,70.93
2019-01-20T23:30:07.521Z,71.07
2019-01-20T23:32:33.748Z,71.29
2019-01-20T23:35:00.011Z,71.40
2019-01-20T23:37:26.220Z,71.47
2019-01-20T23:39:52.423Z,71.44
2019-01-20T23:42:18.575Z,71.11
2019-01-20T23:44:44.741Z,70.71
2019-01-20T23:47:15.258Z,70.45
2019-01-20T23:49:39.422Z,70.21
2019-01-20T23:52:05.590Z,70.23
2019-01-20T23:54:31.879Z,70.36
2019-01-20T23:56:58.043Z,70.21
2019-01-20T23:59:24.210Z,69.77
